Wetterdaten: Woche 01.09.14 - 07.09.14 (KW36)
Datum Zeit Temp. Aussen +5cm Feuchte Auss Luftdruck Regen Sonnenschein Regendauer UV Solar Windben
01.09.2014 00:00 11,7 C 10,2 C 95 % 1017,8 hPa 0,0 l/m 0,00 h 0,00 h 0,0 UV-I 0 W/m 1,2 km/h (1 Bft)
01.09.2014 01:00 11,4 C 9,9 C 96 % 1018,0 hPa 0,0 l/m 0,00 h 0,00 h 0,0 UV-I 0 W/m 0,0 km/h (0 Bft)
01.09.2014 02:00 11,0 C 9,5 C 96 % 1018,3 hPa 0,0 l/m 0,00 h 0,00 h 0,0 UV-I 0 W/m 1,4 km/h (1 Bft)
01.09.2014 03:00 11,0 C 9,9 C 97 % 1018,5 hPa 0,0 l/m 0,00 h 0,00 h 0,0 UV-I 0 W/m 5,7 km/h (1 Bft)
01.09.2014 04:00 10,9 C 10,0 C 97 % 1018,9 hPa 0,0 l/m 0,00 h 0,00 h 0,0 UV-I 0 W/m 6,6 km/h (2 Bft)
01.09.2014 05:00 11,0 C 10,2 C 98 % 1019,4 hPa 0,0 l/m 0,00 h 0,00 h 0,0 UV-I 0 W/m 4,2 km/h (1 Bft)
01.09.2014 06:00 11,2 C 10,6 C 98 % 1019,6 hPa 0,0 l/m 0,00 h 0,00 h 0,0 UV-I 0 W/m 4,5 km/h (1 Bft)
01.09.2014 07:00 11,5 C 10,8 C 98 % 1019,7 hPa 0,0 l/m 0,00 h 0,00 h 0,0 UV-I 0 W/m 7,5 km/h (2 Bft)
01.09.2014 08:00 12,0 C 11,5 C 99 % 1019,9 hPa 0,0 l/m 0,00 h 0,00 h 0,0 UV-I 0 W/m 6,0 km/h (2 Bft)
01.09.2014 09:00 12,6 C 12,4 C 99 % 1020,4 hPa 0,2 l/m 0,00 h 0,00 h 0,0 UV-I 0 W/m 7,0 km/h (2 Bft)
01.09.2014 10:00 13,4 C 13,7 C 99 % 1020,7 hPa 0,0 l/m 0,03 h 0,00 h 0,0 UV-I 400 W/m 7,4 km/h (2 Bft)
01.09.2014 11:00 14,9 C 15,9 C 99 % 1020,9 hPa 0,0 l/m 0,00 h 0,00 h 0,0 UV-I 0 W/m 11,5 km/h (2 Bft)
01.09.2014 12:00 17,0 C 17,2 C 96 % 1020,8 hPa 0,0 l/m 0,00 h 0,00 h 0,0 UV-I 0 W/m 10,2 km/h (2 Bft)
01.09.2014 13:00 18,8 C 17,5 C 80 % 1020,6 hPa 0,0 l/m 0,00 h 0,00 h 0,0 UV-I 0 W/m 6,6 km/h (2 Bft)
01.09.2014 14:00 18,5 C 16,4 C 79 % 1020,5 hPa 0,0 l/m 0,00 h 0,00 h 0,0 UV-I 0 W/m 7,1 km/h (2 Bft)
01.09.2014 15:00 19,0 C 19,4 C 77 % 1020,2 hPa 0,0 l/m 0,00 h 0,00 h 0,0 UV-I 0 W/m 7,9 km/h (2 Bft)
01.09.2014 16:00 20,1 C 19,5 C 73 % 1020,0 hPa 0,0 l/m 0,00 h 0,00 h 0,0 UV-I 0 W/m 12,4 km/h (3 Bft)
01.09.2014 17:00 20,1 C 18,3 C 73 % 1019,9 hPa 0,0 l/m 0,00 h 0,00 h 0,0 UV-I 0 W/m 4,0 km/h (1 Bft)
01.09.2014 18:00 19,3 C 17,6 C 75 % 1019,9 hPa 0,0 l/m 0,00 h 0,00 h 0,0 UV-I 0 W/m 0,5 km/h (0 Bft)
01.09.2014 19:00 18,7 C 15,6 C 80 % 1019,9 hPa 0,0 l/m 0,00 h 0,00 h 0,0 UV-I 0 W/m 0,0 km/h (0 Bft)
01.09.2014 20:00 17,6 C 14,4 C 84 % 1020,0 hPa 0,0 l/m 0,00 h 0,00 h 0,0 UV-I 0 W/m 0,0 km/h (0 Bft)
01.09.2014 21:00 16,2 C 13,3 C 88 % 1020,2 hPa 0,0 l/m 0,00 h 0,00 h 0,0 UV-I 0 W/m 0,0 km/h (0 Bft)
01.09.2014 22:00 15,2 C 12,9 C 90 % 1020,5 hPa 0,0 l/m 0,00 h 0,00 h 0,0 UV-I 0 W/m 0,0 km/h (0 Bft)
01.09.2014 23:00 14,6 C 12,7 C 92 % 1020,5 hPa 0,0 l/m 0,00 h 0,00 h 0,0 UV-I 0 W/m 0,0 km/h (0 Bft)
02.09.2014 00:00 14,0 C 11,8 C 93 % 1020,7 hPa 0,0 l/m 0,00 h 0,00 h 0,0 UV-I 0 W/m 0,0 km/h (0 Bft)
02.09.2014 01:00 13,2 C 11,1 C 93 % 1020,6 hPa 0,0 l/m 0,00 h 0,00 h 0,0 UV-I 0 W/m 0,0 km/h (0 Bft)
02.09.2014 02:00 12,6 C 10,6 C 94 % 1020,6 hPa 0,0 l/m 0,00 h 0,00 h 0,0 UV-I 0 W/m 0,0 km/h (0 Bft)
02.09.2014 03:00 11,9 C 10,0 C 94 % 1020,5 hPa 0,0 l/m 0,00 h 0,00 h 0,0 UV-I 0 W/m 0,0 km/h (0 Bft)
02.09.2014 04:00 11,3 C 9,6 C 95 % 1020,5 hPa 0,0 l/m 0,00 h 0,00 h 0,0 UV-I 0 W/m 0,0 km/h (0 Bft)
02.09.2014 05:00 10,8 C 9,2 C 95 % 1020,5 hPa 0,0 l/m 0,00 h 0,00 h 0,0 UV-I 0 W/m 0,0 km/h (0 Bft)
02.09.2014 06:00 10,5 C 9,3 C 95 % 1020,9 hPa 0,0 l/m 0,00 h 0,00 h 0,0 UV-I 0 W/m 0,0 km/h (0 Bft)
02.09.2014 07:00 10,6 C 10,0 C 96 % 1021,3 hPa 0,0 l/m 0,00 h 0,00 h 0,0 UV-I 0 W/m 0,5 km/h (0 Bft)
02.09.2014 08:00 11,5 C 11,0 C 97 % 1021,5 hPa 0,0 l/m 0,00 h 0,00 h 0,0 UV-I 0 W/m 0,1 km/h (0 Bft)
02.09.2014 09:00 12,9 C 13,0 C 98 % 1021,8 hPa 0,0 l/m 0,00 h 0,00 h 0,0 UV-I 0 W/m 0,0 km/h (0 Bft)
02.09.2014 10:00 15,2 C 15,1 C 99 % 1022,1 hPa 0,0 l/m 0,00 h 0,00 h 0,0 UV-I 0 W/m 1,4 km/h (1 Bft)
02.09.2014 11:00 18,1 C 17,8 C 85 % 1022,0 hPa 0,0 l/m 0,00 h 0,00 h 0,0 UV-I 0 W/m 14,2 km/h (3 Bft)
02.09.2014 12:00 20,3 C 19,0 C 68 % 1022,1 hPa 0,0 l/m 0,00 h 0,00 h 0,0 UV-I 0 W/m 18,7 km/h (3 Bft)
02.09.2014 13:00 21,0 C 20,3 C 66 % 1021,9 hPa 0,0 l/m 0,00 h 0,00 h 0,0 UV-I 0 W/m 22,6 km/h (4 Bft)
02.09.2014 14:00 20,9 C 21,0 C 68 % 1021,8 hPa 0,0 l/m 0,00 h 0,00 h 0,0 UV-I 0 W/m 25,3 km/h (4 Bft)
02.09.2014 15:00 19,8 C 19,7 C 77 % 1021,9 hPa 0,0 l/m 0,00 h 0,00 h 0,0 UV-I 0 W/m 24,1 km/h (4 Bft)
02.09.2014 16:00 20,0 C 19,9 C 79 % 1021,9 hPa 0,0 l/m 0,00 h 0,87 h 0,0 UV-I 0 W/m 22,3 km/h (4 Bft)
02.09.2014 17:00 19,6 C 18,9 C 81 % 1021,8 hPa 0,0 l/m 0,00 h 1,00 h 0,0 UV-I 0 W/m 19,7 km/h (3 Bft)
02.09.2014 18:00 19,3 C 18,2 C 83 % 1021,8 hPa 0,0 l/m 0,00 h 0,97 h 0,0 UV-I 0 W/m 11,0 km/h (2 Bft)
02.09.2014 19:00 18,7 C 17,3 C 85 % 1022,2 hPa 0,0 l/m 0,00 h 0,47 h 0,0 UV-I 0 W/m 8,5 km/h (2 Bft)
02.09.2014 20:00 18,0 C 16,5 C 87 % 1022,5 hPa 0,0 l/m 0,00 h 0,00 h 0,0 UV-I 0 W/m 1,4 km/h (1 Bft)
02.09.2014 21:00 17,0 C 15,0 C 91 % 1023,1 hPa 0,0 l/m 0,00 h 0,00 h 0,0 UV-I 0 W/m 0,2 km/h (0 Bft)
02.09.2014 22:00 15,9 C 13,9 C 94 % 1023,1 hPa 0,0 l/m 0,00 h 0,00 h 0,0 UV-I 0 W/m 0,0 km/h (0 Bft)
02.09.2014 23:00 15,4 C 13,2 C 94 % 1023,1 hPa 0,0 l/m 0,00 h 0,00 h 0,0 UV-I 0 W/m 0,0 km/h (0 Bft)
03.09.2014 00:00 14,5 C 12,5 C 94 % 1023,0 hPa 0,0 l/m 0,00 h 0,00 h 0,0 UV-I 0 W/m 0,0 km/h (0 Bft)
03.09.2014 01:00 13,8 C 12,0 C 94 % 1023,0 hPa 0,0 l/m 0,00 h 0,00 h 0,0 UV-I 0 W/m 0,0 km/h (0 Bft)
03.09.2014 02:00 13,2 C 11,5 C 94 % 1022,9 hPa 0,0 l/m 0,00 h 0,00 h 0,0 UV-I 0 W/m 0,1 km/h (0 Bft)
03.09.2014 03:00 13,0 C 11,6 C 95 % 1022,8 hPa 0,0 l/m 0,00 h 0,00 h 0,0 UV-I 0 W/m 2,5 km/h (1 Bft)
03.09.2014 04:00 13,1 C 11,3 C 96 % 1022,8 hPa 0,0 l/m 0,00 h 0,00 h 0,0 UV-I 0 W/m 1,9 km/h (1 Bft)
03.09.2014 05:00 12,9 C 11,6 C 97 % 1022,8 hPa 0,0 l/m 0,00 h 0,00 h 0,0 UV-I 0 W/m 3,9 km/h (1 Bft)
03.09.2014 06:00 12,6 C 11,1 C 97 % 1023,0 hPa 0,0 l/m 0,00 h 0,00 h 0,0 UV-I 0 W/m 1,6 km/h (1 Bft)
03.09.2014 07:00 12,3 C 11,1 C 97 % 1023,2 hPa 0,0 l/m 0,00 h 0,00 h 0,0 UV-I 0 W/m 3,1 km/h (1 Bft)
03.09.2014 08:00 12,7 C 12,0 C 97 % 1023,3 hPa 0,0 l/m 0,00 h 0,00 h 0,0 UV-I 0 W/m 11,0 km/h (2 Bft)
03.09.2014 09:00 14,4 C 14,1 C 98 % 1023,3 hPa 0,0 l/m 0,00 h 0,00 h 0,0 UV-I 0 W/m 17,3 km/h (3 Bft)
03.09.2014 10:00 17,7 C 16,4 C 83 % 1023,3 hPa 0,0 l/m 0,00 h 0,00 h 0,0 UV-I 0 W/m 23,5 km/h (4 Bft)
03.09.2014 11:00 18,9 C 17,7 C 75 % 1022,9 hPa 0,0 l/m 0,00 h 0,00 h 0,0 UV-I 0 W/m 25,2 km/h (4 Bft)
03.09.2014 12:00 19,6 C 18,7 C 71 % 1022,5 hPa 0,0 l/m 0,00 h 0,00 h 0,0 UV-I 0 W/m 30,1 km/h (5 Bft)
03.09.2014 13:00 20,2 C 19,3 C 70 % 1022,2 hPa 0,0 l/m 0,00 h 0,00 h 0,0 UV-I 0 W/m 25,5 km/h (4 Bft)
03.09.2014 14:00 20,6 C 20,1 C 71 % 1021,9 hPa 0,0 l/m 0,00 h 0,00 h 0,0 UV-I 0 W/m 26,4 km/h (4 Bft)
03.09.2014 15:00 20,3 C 19,7 C 71 % 1021,7 hPa 0,0 l/m 0,00 h 0,00 h 0,0 UV-I 0 W/m 27,0 km/h (4 Bft)
03.09.2014 16:00 20,6 C 19,7 C 71 % 1021,3 hPa 0,0 l/m 0,00 h 0,00 h 0,0 UV-I 0 W/m 25,0 km/h (4 Bft)
03.09.2014 17:00 19,6 C 18,7 C 74 % 1021,1 hPa 0,0 l/m 0,00 h 0,00 h 0,0 UV-I 0 W/m 23,4 km/h (4 Bft)
03.09.2014 18:00 19,4 C 18,0 C 75 % 1020,9 hPa 0,0 l/m 0,00 h 0,00 h 0,0 UV-I 0 W/m 17,5 km/h (3 Bft)
03.09.2014 19:00 19,1 C 17,0 C 77 % 1020,7 hPa 0,0 l/m 0,00 h 0,00 h 0,0 UV-I 0 W/m 9,9 km/h (2 Bft)
03.09.2014 20:00 18,2 C 15,6 C 80 % 1020,8 hPa 0,0 l/m 0,00 h 0,00 h 0,0 UV-I 0 W/m 6,5 km/h (2 Bft)
03.09.2014 21:00 17,9 C 15,9 C 81 % 1020,9 hPa 0,0 l/m 0,00 h 0,00 h 0,0 UV-I 0 W/m 15,5 km/h (3 Bft)
03.09.2014 22:00 17,9 C 16,2 C 80 % 1021,0 hPa 0,0 l/m 0,00 h 0,00 h 0,0 UV-I 0 W/m 20,8 km/h (4 Bft)
03.09.2014 23:00 17,7 C 15,9 C 81 % 1020,9 hPa 0,0 l/m 0,00 h 0,00 h 0,0 UV-I 0 W/m 5,9 km/h (2 Bft)
04.09.2014 00:00 17,4 C 15,6 C 83 % 1020,6 hPa 0,0 l/m 0,00 h 0,00 h 0,0 UV-I 0 W/m 11,0 km/h (2 Bft)
04.09.2014 01:00 17,3 C 15,7 C 83 % 1020,5 hPa 0,0 l/m 0,00 h 0,00 h 0,0 UV-I 0 W/m 6,7 km/h (2 Bft)
04.09.2014 02:00 17,2 C 15,6 C 82 % 1020,3 hPa 0,0 l/m 0,00 h 0,00 h 0,0 UV-I 0 W/m 5,2 km/h (1 Bft)
04.09.2014 03:00 16,8 C 14,4 C 84 % 1019,9 hPa 0,0 l/m 0,00 h 0,00 h 0,0 UV-I 0 W/m 2,6 km/h (1 Bft)
04.09.2014 04:00 15,6 C 12,7 C 87 % 1019,7 hPa 0,0 l/m 0,00 h 0,00 h 0,0 UV-I 0 W/m 1,2 km/h (1 Bft)
04.09.2014 05:00 14,4 C 12,1 C 90 % 1019,5 hPa 0,0 l/m 0,00 h 0,00 h 0,0 UV-I 0 W/m 1,6 km/h (1 Bft)
04.09.2014 06:00 13,6 C 11,5 C 92 % 1019,3 hPa 0,0 l/m 0,00 h 0,00 h 0,0 UV-I 0 W/m 0,9 km/h (0 Bft)
04.09.2014 07:00 13,1 C 11,5 C 93 % 1019,3 hPa 0,0 l/m 0,00 h 0,00 h 0,0 UV-I 0 W/m 0,7 km/h (0 Bft)
04.09.2014 08:00 13,8 C 13,7 C 94 % 1019,2 hPa 0,0 l/m 0,00 h 0,00 h 0,0 UV-I 0 W/m 1,0 km/h (0 Bft)
04.09.2014 09:00 16,0 C 15,4 C 92 % 1019,0 hPa 0,0 l/m 0,00 h 0,00 h 0,0 UV-I 0 W/m 9,1 km/h (2 Bft)
04.09.2014 10:00 19,2 C 17,7 C 81 % 1018,9 hPa 0,0 l/m 0,00 h 0,00 h 0,0 UV-I 0 W/m 13,8 km/h (3 Bft)
04.09.2014 11:00 21,0 C 19,7 C 76 % 1018,7 hPa 0,0 l/m 0,00 h 0,00 h 0,0 UV-I 0 W/m 15,3 km/h (3 Bft)
04.09.2014 12:00 22,0 C 21,2 C 73 % 1018,4 hPa 0,0 l/m 0,00 h 0,00 h 0,0 UV-I 0 W/m 16,2 km/h (3 Bft)
04.09.2014 13:00 23,1 C 22,4 C 69 % 1017,8 hPa 0,0 l/m 0,00 h 0,00 h 0,0 UV-I 0 W/m 17,6 km/h (3 Bft)
04.09.2014 14:00 23,8 C 22,7 C 68 % 1017,3 hPa 0,0 l/m 0,00 h 0,00 h 0,0 UV-I 0 W/m 19,6 km/h (3 Bft)
04.09.2014 15:00 24,4 C 23,0 C 67 % 1017,0 hPa 0,0 l/m 0,00 h 0,00 h 0,0 UV-I 0 W/m 16,7 km/h (3 Bft)
04.09.2014 16:00 24,7 C 23,2 C 66 % 1016,6 hPa 0,0 l/m 0,00 h 0,00 h 0,0 UV-I 0 W/m 11,0 km/h (2 Bft)
04.09.2014 17:00 24,5 C 22,7 C 68 % 1016,1 hPa 0,0 l/m 0,00 h 0,00 h 0,0 UV-I 0 W/m 14,3 km/h (3 Bft)
04.09.2014 18:00 24,4 C 22,0 C 69 % 1015,7 hPa 0,0 l/m 0,00 h 0,00 h 0,0 UV-I 0 W/m 5,8 km/h (2 Bft)
04.09.2014 19:00 23,5 C 20,6 C 72 % 1015,7 hPa 0,0 l/m 0,00 h 0,00 h 0,0 UV-I 0 W/m 13,7 km/h (3 Bft)
04.09.2014 20:00 21,3 C 18,6 C 76 % 1016,2 hPa 0,0 l/m 0,00 h 0,00 h 0,0 UV-I 0 W/m 26,3 km/h (4 Bft)
04.09.2014 21:00 19,8 C 17,8 C 79 % 1016,5 hPa 0,0 l/m 0,00 h 0,00 h 0,0 UV-I 0 W/m 11,0 km/h (2 Bft)
04.09.2014 22:00 19,4 C 16,9 C 81 % 1016,4 hPa 0,0 l/m 0,00 h 0,00 h 0,0 UV-I 0 W/m 0,0 km/h (0 Bft)
04.09.2014 23:00 18,5 C 15,5 C 84 % 1016,2 hPa 0,0 l/m 0,00 h 0,00 h 0,0 UV-I 0 W/m 0,1 km/h (0 Bft)
05.09.2014 00:00 17,3 C 15,0 C 87 % 1015,9 hPa 0,0 l/m 0,00 h 0,00 h 0,0 UV-I 0 W/m 0,0 km/h (0 Bft)
05.09.2014 01:00 16,8 C 15,4 C 89 % 1015,6 hPa 0,0 l/m 0,00 h 0,00 h 0,0 UV-I 0 W/m 0,1 km/h (0 Bft)
05.09.2014 02:00 16,9 C 15,6 C 92 % 1015,2 hPa 0,0 l/m 0,00 h 0,00 h 0,0 UV-I 0 W/m 0,0 km/h (0 Bft)
05.09.2014 03:00 16,9 C 15,7 C 93 % 1014,9 hPa 0,0 l/m 0,00 h 0,00 h 0,0 UV-I 0 W/m 0,0 km/h (0 Bft)
05.09.2014 04:00 17,0 C 15,6 C 93 % 1014,6 hPa 0,0 l/m 0,00 h 0,00 h 0,0 UV-I 0 W/m 0,0 km/h (0 Bft)
05.09.2014 05:00 16,9 C 15,6 C 93 % 1014,3 hPa 0,0 l/m 0,00 h 0,00 h 0,0 UV-I 0 W/m 0,0 km/h (0 Bft)
05.09.2014 06:00 16,8 C 15,1 C 93 % 1014,2 hPa 0,0 l/m 0,00 h 0,00 h 0,0 UV-I 0 W/m 0,0 km/h (0 Bft)
05.09.2014 07:00 16,6 C 15,4 C 94 % 1014,2 hPa 0,0 l/m 0,00 h 0,00 h 0,0 UV-I 0 W/m 0,0 km/h (0 Bft)
05.09.2014 08:00 16,9 C 16,4 C 95 % 1014,4 hPa 0,0 l/m 0,00 h 0,00 h 0,0 UV-I 0 W/m 0,1 km/h (0 Bft)
05.09.2014 09:00 18,2 C 18,5 C 95 % 1014,4 hPa 0,0 l/m 0,00 h 0,00 h 0,0 UV-I 0 W/m 5,3 km/h (1 Bft)
05.09.2014 10:00 20,0 C 20,6 C 89 % 1014,5 hPa 0,0 l/m 0,00 h 0,00 h 0,0 UV-I 0 W/m 14,6 km/h (3 Bft)
05.09.2014 11:00 22,3 C 21,4 C 79 % 1014,4 hPa 0,0 l/m 0,00 h 0,00 h 0,0 UV-I 0 W/m 7,7 km/h (2 Bft)
05.09.2014 12:00 23,2 C 21,7 C 73 % 1014,2 hPa 0,0 l/m 0,00 h 0,00 h 0,0 UV-I 0 W/m 10,4 km/h (2 Bft)
05.09.2014 13:00 23,8 C 22,1 C 70 % 1014,2 hPa 0,0 l/m 0,00 h 0,00 h 0,0 UV-I 0 W/m 12,8 km/h (3 Bft)
05.09.2014 14:00 24,1 C 22,4 C 69 % 1013,8 hPa 0,0 l/m 0,00 h 0,00 h 0,0 UV-I 0 W/m 11,5 km/h (2 Bft)
05.09.2014 15:00 24,2 C 27,8 C 69 % 1013,5 hPa 0,0 l/m 0,00 h 0,00 h 0,0 UV-I 0 W/m 6,6 km/h (2 Bft)
05.09.2014 16:00 25,9 C 26,2 C 63 % 1013,1 hPa 0,0 l/m 0,00 h 0,00 h 0,0 UV-I 0 W/m 7,1 km/h (2 Bft)
05.09.2014 17:00 26,3 C 22,4 C 60 % 1012,9 hPa 0,0 l/m 0,00 h 0,00 h 0,0 UV-I 0 W/m 3,9 km/h (1 Bft)
05.09.2014 18:00 25,4 C 21,5 C 62 % 1012,8 hPa 0,0 l/m 0,00 h 0,00 h 0,0 UV-I 0 W/m 0,9 km/h (0 Bft)
05.09.2014 19:00 24,1 C 19,8 C 69 % 1012,6 hPa 0,0 l/m 0,00 h 0,00 h 0,0 UV-I 0 W/m 0,1 km/h (0 Bft)
05.09.2014 20:00 21,8 C 17,6 C 78 % 1012,8 hPa 0,0 l/m 0,00 h 0,00 h 0,0 UV-I 0 W/m 0,0 km/h (0 Bft)
05.09.2014 21:00 20,1 C 17,0 C 84 % 1013,0 hPa 0,0 l/m 0,00 h 0,00 h 0,0 UV-I 0 W/m 0,0 km/h (0 Bft)
05.09.2014 22:00 19,1 C 16,9 C 87 % 1013,0 hPa 0,0 l/m 0,00 h 0,00 h 0,0 UV-I 0 W/m 0,0 km/h (0 Bft)
05.09.2014 23:00 18,7 C 16,8 C 89 % 1013,1 hPa 0,0 l/m 0,00 h 0,00 h 0,0 UV-I 0 W/m 0,0 km/h (0 Bft)
06.09.2014 00:00 18,4 C 16,6 C 90 % 1013,0 hPa 0,0 l/m 0,00 h 0,00 h 0,0 UV-I 0 W/m 0,0 km/h (0 Bft)
06.09.2014 01:00 17,8 C 15,4 C 91 % 1012,8 hPa 0,0 l/m 0,00 h 0,00 h 0,0 UV-I 0 W/m 0,1 km/h (0 Bft)
06.09.2014 02:00 16,8 C 14,8 C 92 % 1012,7 hPa 0,0 l/m 0,00 h 0,00 h 0,0 UV-I 0 W/m 0,1 km/h (0 Bft)
06.09.2014 03:00 16,1 C 14,1 C 93 % 1012,4 hPa 0,0 l/m 0,00 h 0,00 h 0,0 UV-I 0 W/m 0,0 km/h (0 Bft)
06.09.2014 04:00 15,4 C 13,8 C 93 % 1012,3 hPa 0,0 l/m 0,00 h 0,00 h 0,0 UV-I 0 W/m 0,0 km/h (0 Bft)
06.09.2014 05:00 14,8 C 13,2 C 94 % 1012,3 hPa 0,0 l/m 0,00 h 0,00 h 0,0 UV-I 0 W/m 0,0 km/h (0 Bft)
06.09.2014 06:00 14,4 C 12,8 C 95 % 1012,3 hPa 0,0 l/m 0,00 h 0,00 h 0,0 UV-I 0 W/m 0,1 km/h (0 Bft)
06.09.2014 07:00 14,1 C 12,9 C 95 % 1012,3 hPa 0,0 l/m 0,00 h 0,00 h 0,0 UV-I 0 W/m 0,0 km/h (0 Bft)
06.09.2014 08:00 14,9 C 14,5 C 97 % 1012,6 hPa 0,0 l/m 0,00 h 0,00 h 0,0 UV-I 0 W/m 0,2 km/h (0 Bft)
06.09.2014 09:00 16,6 C 16,4 C 98 % 1012,6 hPa 0,0 l/m 0,00 h 0,00 h 0,0 UV-I 0 W/m 0,2 km/h (0 Bft)
06.09.2014 10:00 19,9 C 19,1 C 95 % 1012,7 hPa 0,0 l/m 0,00 h 0,00 h 0,0 UV-I 0 W/m 2,1 km/h (1 Bft)
06.09.2014 11:00 21,6 C 20,0 C 87 % 1012,7 hPa 0,0 l/m 0,00 h 0,00 h 0,0 UV-I 0 W/m 0,0 km/h (0 Bft)
06.09.2014 12:00 23,3 C 21,8 C 80 % 1012,7 hPa 0,0 l/m 0,00 h 0,00 h 0,0 UV-I 0 W/m 9,7 km/h (2 Bft)
06.09.2014 13:00 23,7 C 22,1 C 78 % 1012,6 hPa 0,0 l/m 0,00 h 0,00 h 0,0 UV-I 0 W/m 9,8 km/h (2 Bft)
06.09.2014 14:00 23,4 C 21,9 C 78 % 1012,5 hPa 0,0 l/m 0,00 h 0,00 h 0,0 UV-I 0 W/m 9,6 km/h (2 Bft)
06.09.2014 15:00 23,6 C 22,1 C 77 % 1012,1 hPa 0,0 l/m 0,00 h 0,00 h 0,0 UV-I 0 W/m 7,3 km/h (2 Bft)
06.09.2014 16:00 24,3 C 23,0 C 74 % 1011,8 hPa 0,0 l/m 0,00 h 0,00 h 0,0 UV-I 0 W/m 6,0 km/h (2 Bft)
06.09.2014 17:00 24,3 C 21,7 C 73 % 1011,5 hPa 0,0 l/m 0,00 h 0,00 h 0,0 UV-I 0 W/m 4,8 km/h (1 Bft)
06.09.2014 18:00 23,1 C 20,4 C 78 % 1011,7 hPa 0,0 l/m 0,00 h 0,00 h 0,0 UV-I 0 W/m 3,2 km/h (1 Bft)
06.09.2014 19:00 22,1 C 19,1 C 81 % 1012,0 hPa 0,0 l/m 0,00 h 0,00 h 0,0 UV-I 0 W/m 0,1 km/h (0 Bft)
06.09.2014 20:00 21,1 C 18,3 C 84 % 1012,3 hPa 0,0 l/m 0,00 h 0,00 h 0,0 UV-I 0 W/m 0,6 km/h (0 Bft)
06.09.2014 21:00 20,2 C 18,2 C 87 % 1012,6 hPa 0,0 l/m 0,00 h 0,00 h 0,0 UV-I 0 W/m 0,7 km/h (0 Bft)
06.09.2014 22:00 19,6 C 17,6 C 89 % 1012,9 hPa 0,0 l/m 0,00 h 0,00 h 0,0 UV-I 0 W/m 4,8 km/h (1 Bft)
06.09.2014 23:00 18,9 C 17,2 C 91 % 1013,3 hPa 0,0 l/m 0,00 h 0,00 h 0,0 UV-I 0 W/m 4,5 km/h (1 Bft)
07.09.2014 00:00 18,3 C 16,8 C 92 % 1013,4 hPa 0,0 l/m 0,00 h 0,00 h 0,0 UV-I 0 W/m 5,6 km/h (1 Bft)
07.09.2014 01:00 17,5 C 15,9 C 92 % 1013,6 hPa 0,0 l/m 0,00 h 0,00 h 0,0 UV-I 0 W/m 2,4 km/h (1 Bft)
07.09.2014 02:00 17,0 C 15,6 C 92 % 1013,7 hPa 0,0 l/m 0,00 h 0,00 h 0,0 UV-I 0 W/m 0,8 km/h (0 Bft)
07.09.2014 03:00 16,6 C 15,6 C 93 % 1013,7 hPa 0,0 l/m 0,00 h 0,00 h 0,0 UV-I 0 W/m 1,8 km/h (1 Bft)
07.09.2014 04:00 16,4 C 15,0 C 93 % 1013,7 hPa 0,0 l/m 0,00 h 0,00 h 0,0 UV-I 0 W/m 3,5 km/h (1 Bft)
07.09.2014 05:00 16,0 C 14,7 C 93 % 1013,7 hPa 0,0 l/m 0,00 h 0,00 h 0,0 UV-I 0 W/m 5,3 km/h (1 Bft)
07.09.2014 06:00 15,2 C 13,2 C 93 % 1013,9 hPa 0,0 l/m 0,00 h 0,00 h 0,0 UV-I 0 W/m 0,1 km/h (0 Bft)
07.09.2014 07:00 14,4 C 13,1 C 93 % 1014,2 hPa 0,0 l/m 0,00 h 0,00 h 0,0 UV-I 0 W/m 0,1 km/h (0 Bft)
07.09.2014 08:00 14,7 C 14,4 C 95 % 1014,6 hPa 0,0 l/m 0,00 h 0,00 h 0,0 UV-I 0 W/m 1,1 km/h (1 Bft)
07.09.2014 09:00 15,9 C 16,0 C 96 % 1014,9 hPa 0,0 l/m 0,00 h 0,00 h 0,0 UV-I 0 W/m 1,3 km/h (1 Bft)
07.09.2014 10:00 17,6 C 17,3 C 93 % 1015,2 hPa 0,0 l/m 0,00 h 0,00 h 0,0 UV-I 0 W/m 1,7 km/h (1 Bft)
07.09.2014 11:00 19,1 C 18,2 C 85 % 1015,3 hPa 0,0 l/m 0,00 h 0,00 h 0,0 UV-I 0 W/m 3,6 km/h (1 Bft)
07.09.2014 12:00 20,3 C 19,3 C 79 % 1015,3 hPa 0,0 l/m 0,00 h 0,00 h 0,0 UV-I 0 W/m 4,0 km/h (1 Bft)
07.09.2014 13:00 22,0 C 20,9 C 74 % 1015,1 hPa 0,0 l/m 0,00 h 0,00 h 0,0 UV-I 0 W/m 3,2 km/h (1 Bft)
07.09.2014 14:00 21,9 C 19,9 C 73 % 1015,0 hPa 0,0 l/m 0,00 h 0,00 h 0,0 UV-I 0 W/m 4,0 km/h (1 Bft)
07.09.2014 15:00 22,7 C 21,0 C 70 % 1014,7 hPa 0,0 l/m 0,00 h 0,00 h 0,0 UV-I 0 W/m 4,9 km/h (1 Bft)
07.09.2014 16:00 22,8 C 20,2 C 70 % 1014,6 hPa 0,0 l/m 0,00 h 0,00 h 0,0 UV-I 0 W/m 1,2 km/h (1 Bft)
07.09.2014 17:00 23,0 C 20,3 C 69 % 1014,5 hPa 0,0 l/m 0,00 h 0,00 h 0,0 UV-I 0 W/m 1,8 km/h (1 Bft)
07.09.2014 18:00 22,7 C 19,1 C 69 % 1014,6 hPa 0,0 l/m 0,00 h 0,00 h 0,0 UV-I 0 W/m 0,9 km/h (0 Bft)
07.09.2014 19:00 21,5 C 17,4 C 75 % 1014,6 hPa 0,0 l/m 0,00 h 0,00 h 0,0 UV-I 0 W/m 0,0 km/h (0 Bft)
07.09.2014 20:00 19,2 C 15,4 C 81 % 1014,9 hPa 0,0 l/m 0,00 h 0,00 h 0,0 UV-I 0 W/m 0,0 km/h (0 Bft)
07.09.2014 21:00 17,2 C 14,3 C 87 % 1015,5 hPa 0,0 l/m 0,00 h 0,00 h 0,0 UV-I 0 W/m 0,0 km/h (0 Bft)
07.09.2014 22:00 16,0 C 13,9 C 90 % 1015,7 hPa 0,0 l/m 0,00 h 0,00 h 0,0 UV-I 0 W/m 0,0 km/h (0 Bft)
07.09.2014 23:00 15,2 C 13,2 C 91 % 1015,9 hPa 0,0 l/m 0,00 h 0,00 h 0,0 UV-I 0 W/m 0,0 km/h (0 Bft)
Min-Datum _ 02.09.14 02.09.14 05.09.14 06.09.14 - - - - - 01.09.14
_ Min-Zeit 06:22 05:40 17:51 17:26 - - - - - 00:00
Minimum _ 10,4 C 8,9 C 59 % 1011,3 hPa - - - - - 0,0 km/h (0 Bft)
Max-Datum _ 05.09.14 05.09.14 01.09.14 03.09.14 01.09.14 01.09.14 02.09.14 01.09.14 01.09.14 03.09.14
_ Max-Zeit 17:01 15:36 11:46 08:06 09:36 10:30 16:04 00:00 10:30 12:46
Maximum _ 26,4 C 32,2 C 100 % 1023,4 hPa 0,2 l/m 0,03 h 0,03 h 0,0 UV-I 400 W/m 43,5 km/h
N (6 Bft)
Durchschnitt _ 17,9 C 16,4 C 85 % 1017,5 hPa #0,2 l/m #2 min. #3:18 h 0,0 UV-I 400 W/m 6,1 km/h (2 Bft)
© 2014 W. Hausmann